Time;durP1;ratioP1;P1;durP2;ratioP2;P2;SDS_P1;SDS_P2;PMS_P1;PMS_P2;Temp;Humidity;BMP_temperature;BMP_pressure;BME280_temperature;BME280_humidity;BME280_pressure;Samples;Min_cycle;Max_cycle;Signal;HPM_P1;HPM_P2
2022/12/08 00:01:34;;;;;;;9.80;6.00;;;8.30;70.70;8.10;95892.00;;;;5106981;28;20230;-86
2022/12/08 00:04:04;;;;;;;11.50;6.40;;;8.30;70.70;8.10;95896.00;;;;5106157;28;20940;-83
2022/12/08 00:09:24;;;;;;;8.97;5.87;;;8.20;70.50;8.10;95892.00;;;;5106928;28;20201;-86
2022/12/08 00:12:04;;;;;;;10.83;5.60;;;8.30;70.60;8.10;95891.00;;;;5107026;28;20317;-87
2022/12/08 00:14:34;;;;;;;8.83;6.13;;;8.30;70.40;8.10;95899.00;;;;5106425;28;20222;-86
2022/12/08 00:17:02;;;;;;;8.60;5.83;;;8.30;70.40;8.10;95895.00;;;;5106650;28;20202;-85
2022/12/08 00:19:31;;;;;;;7.63;5.27;;;8.30;70.50;8.10;95896.00;;;;5107273;28;20237;-86
2022/12/08 00:21:58;;;;;;;8.00;5.67;;;8.30;70.40;8.10;95891.00;;;;5106094;28;20271;-83
2022/12/08 00:24:32;;;;;;;7.67;5.73;;;8.30;70.20;8.10;95886.00;;;;5107002;28;20253;-86
2022/12/08 00:27:01;;;;;;;8.07;6.33;;;8.30;70.30;8.10;95878.00;;;;5104545;28;20210;-86
2022/12/08 00:29:29;;;;;;;7.03;6.00;;;8.30;70.50;8.10;95886.00;;;;5103035;28;20204;-82
2022/12/08 00:31:56;;;;;;;8.00;6.33;;;8.20;71.20;8.10;95884.00;;;;5104137;28;20237;-85
2022/12/08 00:34:23;;;;;;;9.50;5.87;;;8.30;70.60;8.10;95877.00;;;;5103948;28;20222;-85
2022/12/08 00:36:50;;;;;;;7.13;5.47;;;8.30;70.70;8.10;95886.00;;;;5103810;28;20195;-85
2022/12/08 00:39:19;;;;;;;8.23;6.33;;;8.30;70.60;8.10;95881.00;;;;5103966;28;20350;-86
2022/12/08 00:44:32;;;;;;;11.13;6.63;;;8.20;70.60;8.10;95876.00;;;;5103494;28;20249;-85
2022/12/08 00:46:59;;;;;;;8.57;6.33;;;8.20;70.60;8.10;95878.00;;;;5103809;28;20213;-86
2022/12/08 00:49:26;;;;;;;9.53;6.27;;;8.20;70.60;8.00;95874.00;;;;5105554;28;20198;-85
2022/12/08 00:51:54;;;;;;;8.77;6.10;;;8.20;70.50;8.00;95865.00;;;;5104371;28;20230;-85
2022/12/08 00:54:22;;;;;;;11.10;6.27;;;8.20;70.60;8.00;95862.00;;;;5103830;28;20226;-85
2022/12/08 00:56:49;;;;;;;8.97;6.40;;;8.20;70.50;8.00;95866.00;;;;5107117;28;20206;-86
2022/12/08 00:59:17;;;;;;;9.70;6.57;;;8.20;70.60;8.00;95871.00;;;;5105559;28;20225;-85
2022/12/08 01:01:47;;;;;;;9.87;7.30;;;8.20;70.70;8.00;95872.00;;;;5106839;28;20256;-86
2022/12/08 01:04:18;;;;;;;13.57;7.23;;;8.30;70.80;8.00;95862.00;;;;5107552;28;20709;-85
2022/12/08 01:06:45;;;;;;;9.57;6.57;;;8.20;70.70;8.00;95864.00;;;;5113211;28;20195;-85
2022/12/08 01:09:16;;;;;;;12.73;6.63;;;8.20;70.80;8.00;95863.00;;;;5113288;28;20227;-86
2022/12/08 01:11:44;;;;;;;9.27;6.60;;;8.20;70.80;8.00;95862.00;;;;5111642;28;20221;-83
2022/12/08 01:14:12;;;;;;;13.17;6.63;;;8.20;70.80;8.00;95858.00;;;;5109453;28;20218;-86
2022/12/08 01:16:40;;;;;;;8.03;5.73;;;8.20;70.90;8.00;95858.00;;;;5110767;28;20243;-86
2022/12/08 01:19:10;;;;;;;8.17;6.17;;;8.20;70.80;8.00;95860.00;;;;5109756;28;20199;-86
2022/12/08 01:21:38;;;;;;;11.23;6.33;;;8.20;70.50;8.00;95867.00;;;;5108802;28;20195;-82
2022/12/08 01:24:06;;;;;;;8.67;6.03;;;8.20;70.40;7.90;95864.00;;;;5108326;28;20295;-85
2022/12/08 01:26:33;;;;;;;7.60;6.20;;;8.20;70.50;7.90;95871.00;;;;5109811;28;20237;-86
2022/12/08 01:29:00;;;;;;;7.87;6.40;;;8.10;70.40;7.90;95864.00;;;;5109465;28;20624;-86
2022/12/08 01:31:27;;;;;;;12.67;6.53;;;8.20;70.40;7.90;95867.00;;;;5109439;28;20199;-83
2022/12/08 01:33:54;;;;;;;9.23;6.03;;;8.10;70.50;7.90;95861.00;;;;5110905;28;20238;-85
2022/12/08 01:36:26;;;;;;;9.03;6.90;;;8.10;70.60;7.90;95858.00;;;;5108853;28;20256;-85
2022/12/08 01:38:57;;;;;;;9.83;5.77;;;8.10;70.40;7.90;95857.00;;;;5109760;28;20208;-86
2022/12/08 01:41:28;;;;;;;11.17;6.33;;;8.20;70.40;7.90;95861.00;;;;5110274;28;20218;-86
2022/12/08 01:43:59;;;;;;;8.63;6.23;;;8.10;70.50;7.90;95847.00;;;;5109626;28;20305;-86
2022/12/08 01:46:28;;;;;;;12.80;6.47;;;8.10;70.80;7.90;95850.00;;;;5110492;28;20210;-85
2022/12/08 01:49:03;;;;;;;7.87;6.17;;;8.10;70.80;7.90;95846.00;;;;5107874;28;20287;-84
2022/12/08 01:51:48;;;;;;;8.33;6.43;;;8.10;70.80;7.90;95859.00;;;;5108453;28;20273;-85
2022/12/08 01:54:16;;;;;;;8.93;6.40;;;8.10;70.90;7.90;95849.00;;;;5107730;28;20304;-84
2022/12/08 01:56:52;;;;;;;7.37;5.50;;;8.20;71.00;7.90;95853.00;;;;5110383;28;20234;-83
2022/12/08 01:59:19;;;;;;;9.23;6.63;;;8.10;70.90;7.90;95844.00;;;;5108869;28;20217;-83
2022/12/08 02:01:47;;;;;;;8.17;6.17;;;8.10;71.00;7.90;95842.00;;;;5107063;28;20309;-86
2022/12/08 02:04:14;;;;;;;5.63;5.13;;;8.10;70.90;7.90;95838.00;;;;5111554;28;20246;-84
2022/12/08 02:06:46;;;;;;;7.67;6.43;;;8.10;70.80;7.90;95830.00;;;;5107788;28;20225;-86
2022/12/08 02:09:15;;;;;;;8.47;6.03;;;8.10;70.90;7.90;95822.00;;;;5109278;28;20235;-84
2022/12/08 02:11:42;;;;;;;7.20;5.77;;;8.10;70.80;7.90;95824.00;;;;5106339;28;20293;-83
2022/12/08 02:14:11;;;;;;;9.07;5.77;;;8.10;70.90;7.90;95811.00;;;;5107148;28;20257;-86
2022/12/08 02:16:46;;;;;;;9.87;5.97;;;8.10;70.90;7.90;95810.00;;;;5107700;28;20234;-86
2022/12/08 02:19:59;;;;;;;9.40;6.37;;;8.10;70.80;7.80;95823.00;;;;5108852;28;20917;-86
2022/12/08 02:22:41;;;;;;;7.47;5.57;;;8.10;70.50;7.80;95818.00;;;;5084823;28;20287;-85
2022/12/08 02:25:20;;;;;;;7.70;6.20;;;8.10;70.30;7.70;95814.00;;;;5107128;28;20245;-86
2022/12/08 02:28:01;;;;;;;7.13;6.20;;;8.10;70.00;7.60;95802.00;;;;5106138;28;20229;-86
2022/12/08 02:30:44;;;;;;;10.53;6.37;;;8.00;69.80;7.50;95804.00;;;;5109913;28;20281;-86
2022/12/08 02:34:11;;;;;;;8.13;6.17;;;8.00;69.90;7.50;95804.00;;;;5110495;28;20230;-83
2022/12/08 02:36:53;;;;;;;7.90;6.03;;;7.90;70.00;7.40;95798.00;;;;4996436;28;20392;-86
2022/12/08 02:39:34;;;;;;;13.63;6.00;;;7.90;70.10;7.40;95803.00;;;;4996999;28;20579;-85
2022/12/08 02:42:12;;;;;;;9.10;6.23;;;7.80;70.20;7.40;95792.00;;;;5073294;28;20233;-86
2022/12/08 02:44:47;;;;;;;10.07;6.03;;;7.80;70.40;7.40;95784.00;;;;5107091;28;20214;-86
2022/12/08 02:47:18;;;;;;;16.73;6.13;;;7.70;70.40;7.30;95784.00;;;;5107906;28;20262;-81
2022/12/08 02:49:47;;;;;;;8.70;5.60;;;7.70;70.30;7.40;95783.00;;;;5108510;28;20248;-85
2022/12/08 02:52:40;;;;;;;7.93;5.87;;;7.70;70.40;7.30;95789.00;;;;5107633;28;20558;-86
2022/12/08 02:55:17;;;;;;;7.57;5.63;;;7.70;70.40;7.30;95786.00;;;;5106701;28;20199;-84
2022/12/08 02:58:11;;;;;;;8.00;5.70;;;7.60;70.40;7.30;95792.00;;;;5108148;28;20358;-85
2022/12/08 03:00:58;;;;;;;5.97;5.23;;;7.60;70.30;7.30;95776.00;;;;5107460;28;20302;-86
2022/12/08 03:03:41;;;;;;;6.90;5.87;;;7.60;70.30;7.30;95790.00;;;;5108933;28;20252;-86
2022/12/08 03:06:27;;;;;;;6.63;5.43;;;7.60;70.40;7.20;95781.00;;;;5107710;28;20202;-83
2022/12/08 03:09:00;;;;;;;7.53;6.17;;;7.50;70.30;7.20;95776.00;;;;5108866;28;20614;-85
2022/12/08 03:11:42;;;;;;;8.00;6.00;;;7.40;70.30;7.20;95775.00;;;;5103834;28;20256;-86
2022/12/08 03:14:16;;;;;;;8.20;5.77;;;7.50;70.50;7.20;95775.00;;;;5108347;28;20230;-86
2022/12/08 03:16:48;;;;;;;7.90;5.73;;;7.50;70.60;7.20;95782.00;;;;5109689;28;20267;-86
2022/12/08 03:19:20;;;;;;;7.87;5.50;;;7.40;70.60;7.10;95784.00;;;;5107857;28;20796;-85
2022/12/08 03:21:59;;;;;;;8.17;5.23;;;7.40;70.50;7.10;95781.00;;;;5106637;28;20246;-85
2022/12/08 03:24:26;;;;;;;6.00;5.37;;;7.40;70.70;7.10;95774.00;;;;5105412;28;20740;-83
2022/12/08 03:26:59;;;;;;;8.37;6.10;;;7.40;70.80;7.10;95775.00;;;;5107761;28;20236;-85
2022/12/08 03:29:27;;;;;;;9.87;6.83;;;7.40;71.00;7.20;95775.00;;;;5109159;28;20296;-83
2022/12/08 03:31:59;;;;;;;8.77;6.87;;;7.40;71.10;7.10;95765.00;;;;5105213;28;20285;-85
2022/12/08 03:34:29;;;;;;;7.07;5.83;;;7.40;70.90;7.10;95759.00;;;;5107486;28;20293;-85
2022/12/08 03:37:01;;;;;;;8.30;5.77;;;7.40;71.00;7.10;95760.00;;;;5107542;28;20305;-82
2022/12/08 03:39:28;;;;;;;7.57;6.07;;;7.40;71.10;7.10;95763.00;;;;5107456;28;20198;-84
2022/12/08 03:41:56;;;;;;;7.57;6.13;;;7.50;71.10;7.10;95765.00;;;;5107590;28;20230;-85
2022/12/08 03:44:34;;;;;;;7.93;6.50;;;7.40;71.10;7.10;95756.00;;;;5108470;28;20299;-85
2022/12/08 03:47:01;;;;;;;8.83;6.47;;;7.40;71.00;7.10;95749.00;;;;5107942;28;20226;-84
2022/12/08 03:49:28;;;;;;;9.80;6.67;;;7.50;71.10;7.10;95748.00;;;;5107155;28;20230;-86
2022/12/08 03:51:55;;;;;;;8.10;5.87;;;7.40;71.10;7.10;95756.00;;;;5108832;28;20696;-86
2022/12/08 03:54:24;;;;;;;7.13;5.60;;;7.40;71.40;7.10;95758.00;;;;5108604;28;20278;-86
2022/12/08 03:56:51;;;;;;;7.80;6.17;;;7.40;71.50;7.20;95751.00;;;;5107476;28;20208;-83
2022/12/08 03:59:18;;;;;;;7.87;6.20;;;7.40;71.60;7.20;95753.00;;;;5106187;28;20297;-86
2022/12/08 04:01:45;;;;;;;9.00;6.33;;;7.40;71.70;7.20;95752.00;;;;5106879;28;20226;-83
2022/12/08 04:04:12;;;;;;;8.67;6.30;;;7.40;71.70;7.30;95755.00;;;;5107563;28;20246;-86
2022/12/08 04:06:39;;;;;;;7.70;5.83;;;7.50;71.70;7.30;95755.00;;;;5108506;28;20190;-86
2022/12/08 04:09:06;;;;;;;8.40;5.80;;;7.40;71.60;7.30;95749.00;;;;5107576;28;20222;-85
2022/12/08 04:11:35;;;;;;;7.57;5.67;;;7.50;71.60;7.30;95752.00;;;;5109112;28;20237;-83
2022/12/08 04:14:02;;;;;;;8.70;6.00;;;7.50;71.60;7.30;95742.00;;;;5106880;28;20290;-84
2022/12/08 04:16:29;;;;;;;7.53;6.37;;;7.50;71.60;7.30;95747.00;;;;5108735;28;20293;-83
2022/12/08 04:18:56;;;;;;;8.10;5.80;;;7.50;71.60;7.30;95752.00;;;;5108708;28;20229;-83
2022/12/08 04:21:23;;;;;;;8.47;6.37;;;7.50;71.70;7.30;95749.00;;;;5104742;28;20223;-86
2022/12/08 04:23:50;;;;;;;7.93;6.43;;;7.60;71.80;7.30;95751.00;;;;5106518;28;20252;-84
2022/12/08 04:26:18;;;;;;;8.70;6.60;;;7.60;71.70;7.40;95753.00;;;;5105292;28;20887;-84
2022/12/08 04:28:47;;;;;;;7.57;6.17;;;7.60;71.60;7.40;95750.00;;;;5106847;28;20226;-86
2022/12/08 04:31:14;;;;;;;7.93;6.03;;;7.60;71.60;7.40;95746.00;;;;5106542;28;21175;-86
2022/12/08 04:33:41;;;;;;;7.10;5.50;;;7.60;71.80;7.40;95750.00;;;;5106426;28;21149;-86
2022/12/08 04:36:09;;;;;;;7.50;6.50;;;7.60;71.70;7.40;95753.00;;;;5106733;28;20225;-86
2022/12/08 04:38:37;;;;;;;7.03;6.00;;;7.60;71.70;7.40;95753.00;;;;5105582;28;20237;-83
2022/12/08 04:41:04;;;;;;;8.33;5.43;;;7.60;71.50;7.40;95752.00;;;;5107987;28;20226;-84
2022/12/08 04:43:31;;;;;;;7.30;5.97;;;7.60;71.40;7.40;95746.00;;;;5108620;28;20768;-86
2022/12/08 04:46:00;;;;;;;11.83;6.27;;;7.60;71.30;7.40;95742.00;;;;5110240;28;20208;-86
2022/12/08 04:48:27;;;;;;;7.63;5.67;;;7.60;72.10;7.40;95735.00;;;;5111598;28;20191;-85
2022/12/08 04:50:54;;;;;;;7.00;5.87;;;7.60;71.60;7.40;95740.00;;;;5109334;28;20733;-86
2022/12/08 04:53:21;;;;;;;9.17;6.23;;;7.70;71.70;7.40;95742.00;;;;5110789;28;20261;-84
2022/12/08 04:55:48;;;;;;;11.03;6.73;;;7.60;71.50;7.40;95739.00;;;;5110258;28;20269;-85
2022/12/08 04:58:19;;;;;;;8.37;7.03;;;7.60;71.70;7.40;95740.00;;;;5111907;28;20291;-84
2022/12/08 05:00:47;;;;;;;7.37;6.43;;;7.60;72.40;7.40;95744.00;;;;5108078;28;20310;-86
2022/12/08 05:03:17;;;;;;;11.53;6.50;;;7.60;71.70;7.40;95740.00;;;;5106960;28;20690;-84
2022/12/08 05:05:45;;;;;;;10.03;6.63;;;7.60;71.80;7.40;95737.00;;;;5108598;28;20205;-85
2022/12/08 05:08:12;;;;;;;9.80;6.83;;;7.60;71.80;7.40;95731.00;;;;5110444;28;20237;-81
2022/12/08 05:10:40;;;;;;;9.73;6.20;;;7.60;71.70;7.40;95733.00;;;;5105944;28;20206;-85
2022/12/08 05:13:07;;;;;;;7.07;6.27;;;7.60;71.70;7.40;95732.00;;;;5107414;28;20264;-86
2022/12/08 05:15:34;;;;;;;8.70;6.37;;;7.70;71.70;7.40;95723.00;;;;5107455;28;20640;-85
2022/12/08 05:18:01;;;;;;;11.30;7.53;;;7.60;71.60;7.40;95731.00;;;;5108131;28;20241;-83
2022/12/08 05:20:30;;;;;;;7.60;6.13;;;7.60;71.70;7.40;95737.00;;;;5102732;28;20719;-86
2022/12/08 05:22:57;;;;;;;6.97;5.67;;;7.60;71.90;7.40;95716.00;;;;5105645;28;20201;-85
2022/12/08 05:25:24;;;;;;;8.67;6.60;;;7.60;72.00;7.40;95733.00;;;;5105681;28;20902;-86
2022/12/08 05:27:51;;;;;;;7.33;5.67;;;7.60;71.90;7.40;95736.00;;;;5103655;28;20677;-87
2022/12/08 05:30:19;;;;;;;8.73;6.17;;;7.60;71.80;7.40;95731.00;;;;5101413;28;20205;-86
2022/12/08 05:32:46;;;;;;;8.17;6.10;;;7.70;72.00;7.40;95727.00;;;;5103578;28;20729;-83
2022/12/08 05:35:13;;;;;;;11.07;6.40;;;7.70;72.00;7.40;95731.00;;;;5101714;28;20213;-84
2022/12/08 05:37:42;;;;;;;12.37;6.67;;;7.70;72.00;7.40;95724.00;;;;5101234;28;20318;-85
2022/12/08 05:40:10;;;;;;;10.87;6.67;;;7.70;72.10;7.50;95729.00;;;;5106382;28;20293;-86
2022/12/08 05:42:37;;;;;;;9.40;6.50;;;7.70;72.00;7.50;95732.00;;;;5105554;28;20260;-86
2022/12/08 05:45:05;;;;;;;8.30;6.03;;;7.70;72.00;7.50;95726.00;;;;5105571;28;20303;-86
2022/12/08 05:47:32;;;;;;;11.07;6.93;;;7.70;72.10;7.40;95724.00;;;;5106140;28;20297;-83
2022/12/08 05:50:00;;;;;;;8.30;6.60;;;7.70;72.00;7.40;95715.00;;;;5104434;28;20226;-85
2022/12/08 05:52:27;;;;;;;8.43;6.37;;;7.70;72.10;7.40;95714.00;;;;5103266;28;20298;-84
2022/12/08 05:54:55;;;;;;;7.17;6.23;;;7.70;72.00;7.50;95719.00;;;;5105373;28;20427;-84
2022/12/08 05:57:23;;;;;;;11.10;6.40;;;7.70;72.00;7.50;95711.00;;;;5105928;28;20613;-85
2022/12/08 05:59:50;;;;;;;8.67;6.80;;;7.70;72.10;7.40;95715.00;;;;5104692;28;20298;-86
2022/12/08 06:02:17;;;;;;;9.40;7.03;;;7.70;72.10;7.40;95710.00;;;;5103328;28;20959;-85
2022/12/08 06:04:44;;;;;;;10.13;7.27;;;7.70;71.90;7.40;95707.00;;;;5103653;28;20218;-85
2022/12/08 06:07:11;;;;;;;10.87;6.73;;;7.70;71.80;7.40;95704.00;;;;5105077;28;20249;-83
2022/12/08 06:09:38;;;;;;;8.23;6.60;;;7.70;71.80;7.40;95697.00;;;;5103872;28;20616;-86
2022/12/08 06:12:07;;;;;;;9.67;6.80;;;7.70;71.80;7.40;95702.00;;;;5102875;28;20655;-84
2022/12/08 06:14:34;;;;;;;8.80;6.30;;;7.70;71.80;7.40;95701.00;;;;5106870;28;20214;-84
2022/12/08 06:17:01;;;;;;;9.13;5.97;;;7.70;71.90;7.40;95705.00;;;;5104494;28;20318;-84
2022/12/08 06:19:28;;;;;;;9.57;6.73;;;7.70;72.00;7.40;95708.00;;;;5107604;28;20203;-86
2022/12/08 06:21:55;;;;;;;9.10;6.30;;;7.60;71.90;7.40;95714.00;;;;5106857;28;20253;-84
2022/12/08 06:24:23;;;;;;;8.10;6.63;;;7.60;72.00;7.40;95708.00;;;;5106253;28;20225;-86
2022/12/08 06:26:50;;;;;;;9.20;6.90;;;7.70;72.10;7.40;95715.00;;;;5106749;28;20975;-82
2022/12/08 06:29:18;;;;;;;8.87;7.17;;;7.70;71.90;7.40;95708.00;;;;5108819;28;20230;-84
2022/12/08 06:31:46;;;;;;;9.00;6.23;;;7.60;71.90;7.40;95709.00;;;;5106872;28;20230;-84
2022/12/08 06:34:14;;;;;;;8.00;6.47;;;7.60;71.90;7.40;95715.00;;;;5106721;28;20272;-86
2022/12/08 06:36:41;;;;;;;10.40;7.23;;;7.60;71.90;7.40;95709.00;;;;5109175;28;20721;-85
2022/12/08 06:39:09;;;;;;;11.80;7.07;;;7.60;72.00;7.40;95700.00;;;;5113511;28;20237;-84
2022/12/08 06:42:42;;;;;;;9.73;6.87;;;7.60;72.00;7.40;95697.00;;;;5108592;28;20275;-87
2022/12/08 06:44:25;;;;;;;13.57;6.43;;;7.70;72.00;7.40;95709.00;;;;5100091;28;20206;-86
2022/12/08 06:46:52;;;;;;;8.40;6.67;;;7.60;72.00;7.50;95701.00;;;;5102422;28;20630;-89
2022/12/08 06:49:20;;;;;;;8.03;6.80;;;7.60;72.00;7.50;95710.00;;;;5101473;28;20229;-89
2022/12/08 06:51:47;;;;;;;8.10;6.57;;;7.60;72.10;7.60;95702.00;;;;5104733;28;21192;-86
2022/12/08 06:54:14;;;;;;;9.83;6.73;;;7.70;72.20;7.60;95706.00;;;;5100493;28;20328;-88
2022/12/08 06:56:41;;;;;;;7.57;6.40;;;7.70;72.30;7.60;95711.00;;;;5101069;28;20285;-88
2022/12/08 06:59:09;;;;;;;8.23;6.40;;;7.70;72.30;7.70;95711.00;;;;5103643;28;20199;-88
2022/12/08 07:01:37;;;;;;;11.30;6.27;;;7.70;72.30;7.70;95701.00;;;;5103552;28;20222;-88
2022/12/08 07:04:06;;;;;;;7.17;6.00;;;7.70;72.10;7.70;95701.00;;;;5102527;28;20231;-90
2022/12/08 07:06:33;;;;;;;8.63;6.53;;;7.70;72.10;7.70;95715.00;;;;5100946;28;20658;-88
2022/12/08 07:09:00;;;;;;;7.70;6.07;;;7.70;72.00;7.70;95717.00;;;;5104766;28;20195;-88
2022/12/08 07:11:27;;;;;;;8.43;6.30;;;7.70;71.90;7.70;95711.00;;;;5102866;28;20289;-89
2022/12/08 07:13:56;;;;;;;7.13;5.57;;;7.70;72.00;7.70;95702.00;;;;5099866;28;20249;-89
2022/12/08 07:16:24;;;;;;;6.73;5.80;;;7.70;72.10;7.70;95697.00;;;;5104857;28;20202;-88
2022/12/08 07:18:53;;;;;;;7.47;6.40;;;7.80;72.10;7.70;95694.00;;;;5104373;28;20285;-90
2022/12/08 07:21:20;;;;;;;8.43;5.80;;;7.80;72.10;7.70;95711.00;;;;5102133;28;20399;-86
2022/12/08 07:23:50;;;;;;;7.03;6.17;;;7.70;72.00;7.70;95717.00;;;;5104758;28;20246;-89
2022/12/08 07:26:17;;;;;;;12.97;7.50;;;7.80;72.20;7.70;95719.00;;;;5103580;28;20683;-88
2022/12/08 07:28:44;;;;;;;15.73;9.67;;;7.80;72.20;7.70;95723.00;;;;5105450;28;20207;-87
2022/12/08 07:31:20;;;;;;;16.87;9.43;;;7.70;72.30;7.70;95718.00;;;;5103180;28;20765;-89
2022/12/08 07:33:47;;;;;;;15.77;9.17;;;7.80;72.40;7.70;95724.00;;;;5104886;28;20623;-85
2022/12/08 07:36:16;;;;;;;14.27;8.63;;;7.80;72.30;7.80;95722.00;;;;5101183;28;20233;-89
2022/12/08 07:38:43;;;;;;;14.00;8.40;;;7.80;72.40;7.80;95718.00;;;;5102568;28;20279;-87
2022/12/08 07:41:15;;;;;;;8.27;6.53;;;7.80;72.40;7.80;95715.00;;;;5098810;28;20593;-86
2022/12/08 07:43:43;;;;;;;8.63;6.87;;;7.80;72.40;7.80;95704.00;;;;5101801;28;20250;-89
2022/12/08 07:46:13;;;;;;;10.00;6.30;;;7.80;72.40;7.80;95726.00;;;;5102793;28;20310;-87
2022/12/08 07:48:41;;;;;;;7.97;5.80;;;7.80;72.30;7.80;95727.00;;;;5101915;28;20278;-88
2022/12/08 07:51:10;;;;;;;10.10;7.17;;;7.90;72.50;7.80;95727.00;;;;5105154;28;20278;-85
2022/12/08 07:53:39;;;;;;;11.23;7.60;;;7.80;72.50;7.80;95720.00;;;;5103782;28;20215;-88
2022/12/08 07:56:08;;;;;;;8.97;6.37;;;7.90;72.50;7.90;95711.00;;;;5104701;28;20816;-89
2022/12/08 07:58:35;;;;;;;11.17;6.73;;;7.90;72.40;7.90;95721.00;;;;5102637;28;20194;-89
2022/12/08 08:01:03;;;;;;;10.33;6.93;;;7.90;72.40;7.90;95725.00;;;;5102596;28;20702;-88
2022/12/08 08:03:30;;;;;;;9.90;7.40;;;7.90;72.40;7.90;95724.00;;;;5103461;28;20221;-90
2022/12/08 08:06:03;;;;;;;9.43;6.77;;;8.00;72.40;7.90;95731.00;;;;5105087;28;20226;-89
2022/12/08 08:08:30;;;;;;;11.37;7.23;;;8.00;72.30;8.00;95725.00;;;;5103941;28;20230;-87
2022/12/08 08:10:59;;;;;;;9.00;6.87;;;8.00;72.10;8.00;95726.00;;;;5102407;28;20614;-90
2022/12/08 08:13:26;;;;;;;10.53;7.53;;;8.00;72.80;8.00;95732.00;;;;5101592;28;20229;-89
2022/12/08 08:15:53;;;;;;;9.90;7.57;;;8.00;72.20;8.00;95728.00;;;;5104367;28;20283;-89
2022/12/08 08:18:20;;;;;;;10.67;7.30;;;8.00;72.30;8.10;95730.00;;;;5106827;28;20290;-89
2022/12/08 08:20:48;;;;;;;9.17;7.13;;;8.00;72.10;8.10;95727.00;;;;5105992;28;20720;-89
2022/12/08 08:23:15;;;;;;;10.93;8.00;;;8.10;72.10;8.10;95721.00;;;;5101150;28;20656;-88
2022/12/08 08:25:45;;;;;;;12.23;8.40;;;8.10;72.20;8.10;95720.00;;;;5093117;28;20296;-86
2022/12/08 08:28:14;;;;;;;11.13;7.57;;;8.10;72.30;8.20;95717.00;;;;5100967;28;20226;-85
2022/12/08 08:30:41;;;;;;;9.33;7.37;;;8.30;72.50;8.20;95723.00;;;;5108157;28;20206;-87
2022/12/08 08:33:08;;;;;;;14.50;8.00;;;8.20;72.30;8.20;95731.00;;;;5105591;28;20232;-89
2022/12/08 08:35:36;;;;;;;13.17;8.03;;;8.30;72.40;8.30;95732.00;;;;5104369;28;20205;-88
2022/12/08 08:38:03;;;;;;;9.80;7.50;;;8.30;72.30;8.40;95729.00;;;;5107739;28;20215;-86
2022/12/08 08:40:30;;;;;;;11.27;7.97;;;8.30;72.30;8.40;95721.00;;;;5108893;28;20697;-87
2022/12/08 08:43:00;;;;;;;11.73;7.90;;;8.30;72.40;8.40;95723.00;;;;5107357;28;20301;-87
2022/12/08 08:45:29;;;;;;;10.80;8.00;;;8.40;72.40;8.40;95725.00;;;;5104531;28;20314;-86
2022/12/08 08:47:56;;;;;;;9.13;7.37;;;8.40;72.30;8.50;95720.00;;;;5104620;28;20572;-87
2022/12/08 08:50:24;;;;;;;8.70;7.20;;;8.40;72.00;8.50;95724.00;;;;5107985;28;20270;-85
2022/12/08 08:52:51;;;;;;;9.43;7.27;;;8.40;71.90;8.50;95730.00;;;;5103852;28;20198;-88
2022/12/08 08:55:19;;;;;;;9.43;7.50;;;8.50;72.10;8.60;95731.00;;;;5104565;28;21085;-85
2022/12/08 08:57:46;;;;;;;9.13;7.53;;;8.50;72.00;8.60;95733.00;;;;5107130;28;20202;-86
2022/12/08 09:00:15;;;;;;;9.33;7.97;;;8.50;72.10;8.60;95728.00;;;;5105073;28;20294;-87
2022/12/08 09:02:44;;;;;;;8.43;7.53;;;8.50;72.00;8.70;95735.00;;;;5101610;28;20750;-84
2022/12/08 09:05:12;;;;;;;9.17;7.83;;;8.60;72.00;8.70;95742.00;;;;5108565;28;20880;-84
2022/12/08 09:07:39;;;;;;;10.77;8.13;;;8.60;72.00;8.70;95736.00;;;;5111498;28;20669;-87
2022/12/08 09:10:08;;;;;;;11.13;8.10;;;8.70;72.10;8.80;95732.00;;;;5104653;28;20203;-86
2022/12/08 09:12:35;;;;;;;9.73;8.00;;;8.70;72.10;8.80;95732.00;;;;5104875;28;20199;-87
2022/12/08 09:15:02;;;;;;;11.00;7.87;;;8.70;72.10;8.80;95732.00;;;;5103923;28;20222;-85
2022/12/08 09:17:29;;;;;;;11.17;8.03;;;8.80;72.10;8.90;95730.00;;;;5106647;28;20281;-87
2022/12/08 09:19:59;;;;;;;9.70;7.53;;;8.80;72.00;8.90;95736.00;;;;5107087;28;20255;-86
2022/12/08 09:22:27;;;;;;;10.63;7.73;;;8.80;71.80;9.00;95731.00;;;;5103601;28;20218;-86
2022/12/08 09:24:54;;;;;;;12.03;8.77;;;8.90;71.90;9.00;95728.00;;;;5103610;28;20227;-87
2022/12/08 09:27:21;;;;;;;10.37;8.23;;;8.90;71.80;9.00;95726.00;;;;5116639;28;20267;-86
2022/12/08 09:29:48;;;;;;;11.93;8.57;;;8.90;71.40;9.00;95726.00;;;;5117884;28;20489;-88
2022/12/08 09:32:15;;;;;;;9.87;8.30;;;9.00;71.10;9.10;95718.00;;;;5116344;28;20237;-86
2022/12/08 09:34:42;;;;;;;13.70;8.37;;;9.00;71.20;9.10;95722.00;;;;5112808;28;20238;-88
2022/12/08 09:37:11;;;;;;;11.77;8.00;;;9.00;71.30;9.10;95708.00;;;;5103497;28;20681;-85
2022/12/08 09:39:38;;;;;;;11.47;8.23;;;9.00;71.30;9.10;95709.00;;;;5106333;28;20290;-86
2022/12/08 09:42:07;;;;;;;11.77;8.30;;;9.10;71.40;9.20;95701.00;;;;5100363;28;20804;-87
2022/12/08 09:44:58;;;;;;;11.57;8.83;;;9.10;71.00;9.20;95697.00;;;;5105458;28;20218;-87
2022/12/08 09:47:32;;;;;;;11.10;8.23;;;9.10;70.20;9.20;95703.00;;;;5103279;28;20201;-85
2022/12/08 09:50:07;;;;;;;11.50;8.10;;;9.20;70.50;9.20;95706.00;;;;5103905;28;20286;-88
2022/12/08 09:52:42;;;;;;;10.87;8.70;;;9.20;70.40;9.20;95705.00;;;;5103230;28;20194;-87
2022/12/08 09:55:20;;;;;;;11.10;8.10;;;9.20;70.50;9.20;95694.00;;;;5099800;28;20226;-87
2022/12/08 09:57:58;;;;;;;11.50;8.07;;;9.20;70.60;9.20;95687.00;;;;5103690;28;20269;-85
2022/12/08 10:00:26;;;;;;;10.37;7.83;;;9.20;70.70;9.30;95685.00;;;;5105107;28;20702;-89
2022/12/08 10:02:53;;;;;;;11.63;8.10;;;9.20;70.90;9.30;95686.00;;;;5104519;28;20309;-88
2022/12/08 10:05:22;;;;;;;11.43;8.17;;;9.20;71.00;9.30;95689.00;;;;5104175;28;20230;-88
2022/12/08 10:08:08;;;;;;;10.47;8.23;;;9.20;71.00;9.30;95693.00;;;;5106459;28;20201;-88
2022/12/08 10:10:42;;;;;;;10.20;8.00;;;9.20;70.50;9.30;95681.00;;;;5105720;28;20929;-88
2022/12/08 10:13:21;;;;;;;17.83;8.13;;;9.30;70.40;9.30;95671.00;;;;5104859;28;20245;-88
2022/12/08 10:16:02;;;;;;;12.13;8.30;;;9.30;70.30;9.30;95671.00;;;;5104910;28;20222;-88
2022/12/08 10:18:34;;;;;;;12.53;8.30;;;9.30;70.50;9.30;95674.00;;;;5106891;28;20623;-86
2022/12/08 10:21:17;;;;;;;10.47;8.23;;;9.30;70.60;9.30;95668.00;;;;5106778;28;20308;-88
2022/12/08 10:23:52;;;;;;;11.77;8.33;;;9.30;70.30;9.40;95662.00;;;;5105659;28;20240;-88
2022/12/08 10:26:22;;;;;;;11.63;7.97;;;9.30;70.30;9.40;95662.00;;;;5104973;28;20205;-88
2022/12/08 10:28:49;;;;;;;12.10;8.93;;;9.30;70.30;9.40;95670.00;;;;5106178;28;20625;-87
2022/12/08 10:31:19;;;;;;;11.77;8.70;;;9.30;70.50;9.50;95658.00;;;;5105366;28;20285;-88
2022/12/08 10:33:52;;;;;;;11.87;8.83;;;9.30;70.60;9.50;95654.00;;;;5105576;28;20222;-88
2022/12/08 10:36:19;;;;;;;13.20;8.33;;;9.40;70.70;9.50;95644.00;;;;5103760;28;20222;-88
2022/12/08 10:38:48;;;;;;;9.90;7.97;;;9.40;70.90;9.50;95641.00;;;;5105546;28;20670;-88
2022/12/08 10:41:16;;;;;;;11.00;8.43;;;9.40;71.00;9.50;95649.00;;;;5105817;28;21036;-87
2022/12/08 10:43:48;;;;;;;11.40;7.93;;;9.40;71.00;9.60;95649.00;;;;5104377;28;20226;-87
2022/12/08 10:46:19;;;;;;;9.80;7.57;;;9.40;70.80;9.60;95640.00;;;;5096188;28;20203;-88
2022/12/08 10:48:52;;;;;;;8.70;7.80;;;9.50;70.60;9.60;95639.00;;;;5103314;28;20199;-88
2022/12/08 10:51:28;;;;;;;11.77;8.00;;;9.50;70.60;9.70;95635.00;;;;5100673;28;20294;-89
2022/12/08 10:53:58;;;;;;;11.20;7.77;;;9.50;70.70;9.70;95627.00;;;;5103238;28;20441;-88
2022/12/08 10:56:28;;;;;;;10.77;8.23;;;9.50;70.60;9.70;95621.00;;;;5103484;28;20201;-88
2022/12/08 10:59:16;;;;;;;10.17;8.13;;;9.50;70.20;9.70;95618.00;;;;5105538;28;20203;-89
2022/12/08 11:01:47;;;;;;;10.67;8.00;;;9.60;70.10;9.70;95613.00;;;;5103664;28;20279;-86
2022/12/08 11:04:29;;;;;;;10.73;7.50;;;9.60;70.40;9.80;95624.00;;;;5106220;28;20313;-88
2022/12/08 11:06:56;;;;;;;10.47;8.07;;;9.60;70.60;9.80;95619.00;;;;5104137;28;20281;-85
2022/12/08 11:09:39;;;;;;;9.80;8.33;;;9.60;70.80;9.80;95620.00;;;;5108042;28;20226;-88
2022/12/08 11:12:14;;;;;;;10.20;7.93;;;9.70;70.60;9.80;95619.00;;;;5111217;28;20206;-89
2022/12/08 11:14:55;;;;;;;11.70;8.30;;;9.70;70.60;9.90;95615.00;;;;5104473;28;20240;-88
2022/12/08 11:17:28;;;;;;;10.57;7.67;;;9.70;70.20;9.90;95615.00;;;;5108497;28;20297;-88
2022/12/08 11:19:59;;;;;;;10.63;7.93;;;9.70;70.20;9.90;95614.00;;;;5108248;28;20210;-88
2022/12/08 11:22:31;;;;;;;10.43;7.57;;;9.80;70.30;9.90;95603.00;;;;5101460;28;20229;-89
2022/12/08 11:25:17;;;;;;;9.83;7.90;;;9.80;70.40;9.90;95605.00;;;;5104969;28;20232;-86
2022/12/08 11:27:48;;;;;;;10.57;7.93;;;9.80;70.00;10.00;95598.00;;;;5102901;28;20277;-85